createdAt,value
2017-08-19T00:00:49.593Z,17.24
2017-08-19T00:01:55.414Z,17.22
2017-08-19T00:03:01.512Z,17.23
2017-08-19T00:04:07.569Z,17.19
2017-08-19T00:05:13.584Z,17.16
2017-08-19T00:06:19.589Z,17.13
2017-08-19T00:07:25.650Z,17.16
2017-08-19T00:08:31.690Z,17.19
2017-08-19T00:09:37.516Z,17.12
2017-08-19T00:10:43.561Z,17.10
2017-08-19T00:11:49.578Z,17.10
2017-08-19T00:12:55.611Z,17.03
2017-08-19T00:14:01.721Z,17.06
2017-08-19T00:15:07.776Z,17.09
2017-08-19T00:16:13.804Z,17.11
2017-08-19T00:17:19.790Z,17.14
2017-08-19T00:18:25.835Z,17.08
2017-08-19T00:19:31.874Z,17.11
2017-08-19T00:20:37.885Z,17.07
2017-08-19T00:21:43.906Z,17.06
2017-08-19T00:22:49.899Z,17.03
2017-08-19T00:23:55.943Z,17.03
2017-08-19T00:25:02.026Z,16.98
2017-08-19T00:26:08.085Z,17.03
2017-08-19T00:27:14.113Z,17.01
2017-08-19T00:28:20.151Z,17.02
2017-08-19T00:29:26.181Z,16.99
2017-08-19T00:30:32.265Z,16.97
2017-08-19T00:31:37.924Z,16.92
2017-08-19T00:32:43.933Z,16.97
2017-08-19T00:33:49.931Z,16.96
2017-08-19T00:34:55.948Z,17.02
2017-08-19T00:36:01.663Z,17.01
2017-08-19T00:37:07.701Z,16.93
2017-08-19T00:38:13.725Z,16.89
2017-08-19T00:39:19.779Z,16.90
2017-08-19T00:40:25.483Z,16.93
2017-08-19T00:41:31.557Z,16.90
2017-08-19T00:42:37.185Z,16.88
2017-08-19T00:43:43.217Z,16.93
2017-08-19T00:44:49.227Z,16.92
2017-08-19T00:45:55.290Z,16.89
2017-08-19T00:47:01.317Z,16.88
2017-08-19T00:48:07.349Z,16.89
2017-08-19T00:49:12.990Z,16.98
2017-08-19T00:50:18.326Z,16.97
2017-08-19T00:51:23.707Z,16.97
2017-08-19T00:52:29.775Z,16.97
2017-08-19T00:53:35.424Z,16.91
2017-08-19T00:54:41.433Z,16.96
2017-08-19T00:55:47.100Z,16.96
2017-08-19T00:56:52.767Z,17.01
2017-08-19T00:57:58.918Z,17.02
2017-08-19T00:59:05.027Z,16.97
2017-08-19T01:00:10.715Z,16.95
2017-08-19T01:01:16.170Z,16.95
2017-08-19T01:02:21.853Z,17.02
2017-08-19T01:03:27.907Z,16.93
2017-08-19T01:04:37.301Z,16.91
2017-08-19T01:05:42.689Z,16.88
2017-08-19T01:06:48.022Z,16.95
2017-08-19T01:07:53.157Z,16.92
2017-08-19T01:08:58.310Z,16.97
2017-08-19T01:10:04.244Z,16.90
2017-08-19T01:11:11.152Z,16.86
2017-08-19T01:12:17.181Z,16.89
2017-08-19T01:13:23.185Z,16.84
2017-08-19T01:14:29.225Z,16.89
2017-08-19T01:15:35.279Z,16.89
2017-08-19T01:16:41.334Z,16.90
2017-08-19T01:17:47.366Z,16.88
2017-08-19T01:18:53.393Z,16.97
2017-08-19T01:19:59.512Z,16.93
2017-08-19T01:21:05.156Z,16.87
2017-08-19T01:22:10.473Z,16.91
2017-08-19T01:23:16.327Z,16.91
2017-08-19T01:24:22.007Z,16.90
2017-08-19T01:25:39.073Z,16.83
2017-08-19T01:26:55.798Z,16.84
2017-08-19T01:28:01.849Z,16.90
2017-08-19T01:29:07.857Z,16.91
2017-08-19T01:30:14.383Z,16.95
2017-08-19T01:31:21.077Z,16.92
2017-08-19T01:32:27.231Z,16.91
2017-08-19T01:33:33.084Z,16.89
2017-08-19T01:34:39.113Z,16.90
2017-08-19T01:35:45.131Z,16.90
2017-08-19T01:36:51.241Z,16.91
2017-08-19T01:37:57.304Z,16.94
2017-08-19T01:39:03.407Z,16.88
2017-08-19T01:40:09.422Z,16.82
2017-08-19T01:41:15.432Z,16.89
2017-08-19T01:42:21.486Z,16.93
2017-08-19T01:43:27.534Z,16.86
2017-08-19T01:44:33.714Z,16.88
2017-08-19T01:45:40.060Z,16.85
2017-08-19T01:46:46.154Z,16.88
2017-08-19T01:47:52.029Z,16.91
2017-08-19T01:48:58.070Z,16.94
2017-08-19T01:50:04.178Z,16.92
2017-08-19T01:51:10.205Z,16.84
2017-08-19T01:52:16.223Z,16.81
2017-08-19T01:53:22.297Z,16.86
2017-08-19T01:54:28.366Z,16.91
2017-08-19T01:55:34.392Z,16.96
2017-08-19T01:56:40.460Z,16.91
2017-08-19T01:57:47.185Z,16.80
2017-08-19T01:58:54.324Z,16.78
2017-08-19T02:00:00.738Z,16.79
2017-08-19T02:01:06.661Z,16.81
2017-08-19T02:02:13.015Z,16.82
2017-08-19T02:03:19.090Z,16.86
2017-08-19T02:04:25.443Z,16.82
2017-08-19T02:05:31.831Z,16.88
2017-08-19T02:06:39.846Z,16.91
2017-08-19T02:07:48.703Z,16.95
2017-08-19T02:08:54.873Z,16.95
2017-08-19T02:10:00.785Z,16.91
2017-08-19T02:11:06.841Z,16.88
2017-08-19T02:12:12.966Z,16.91
2017-08-19T02:13:18.994Z,16.91
2017-08-19T02:14:25.046Z,16.95
2017-08-19T02:15:31.107Z,16.96
2017-08-19T02:16:37.199Z,16.99
2017-08-19T02:17:43.242Z,17.00
2017-08-19T02:18:49.301Z,16.98
2017-08-19T02:19:55.325Z,16.96
2017-08-19T02:21:01.426Z,16.90
2017-08-19T02:22:07.465Z,16.86
2017-08-19T02:23:13.804Z,16.82
2017-08-19T02:24:19.925Z,16.74
2017-08-19T02:25:25.968Z,16.70
2017-08-19T02:26:32.361Z,16.71
2017-08-19T02:27:41.466Z,16.73
2017-08-19T02:28:47.526Z,16.72
2017-08-19T02:29:53.679Z,16.73
2017-08-19T02:30:59.886Z,16.65
2017-08-19T02:32:06.293Z,16.62
2017-08-19T02:33:12.361Z,16.55
2017-08-19T02:34:18.971Z,16.51
2017-08-19T02:35:25.126Z,16.55
2017-08-19T02:36:32.013Z,16.51
2017-08-19T02:37:38.055Z,16.49
2017-08-19T02:38:44.101Z,16.60
2017-08-19T02:39:51.046Z,16.62
2017-08-19T02:40:57.294Z,16.61
2017-08-19T02:42:03.408Z,16.54
2017-08-19T02:43:10.032Z,16.53
2017-08-19T02:44:16.053Z,16.58
2017-08-19T02:45:22.808Z,16.68
2017-08-19T02:46:28.818Z,16.71
2017-08-19T02:47:34.933Z,16.57
2017-08-19T02:48:41.137Z,16.54
2017-08-19T02:49:47.662Z,16.55
2017-08-19T02:50:53.708Z,16.58
2017-08-19T02:51:59.563Z,16.60
2017-08-19T02:53:05.572Z,16.65
2017-08-19T02:54:11.717Z,16.62
2017-08-19T02:55:17.802Z,16.57
2017-08-19T02:56:23.650Z,16.53
2017-08-19T02:57:29.670Z,16.56
2017-08-19T02:58:35.764Z,16.44
2017-08-19T02:59:41.863Z,16.42
2017-08-19T03:00:47.961Z,16.49
2017-08-19T03:01:53.989Z,16.46
2017-08-19T03:03:00.024Z,16.49
2017-08-19T03:04:06.092Z,16.54
2017-08-19T03:05:12.128Z,16.53
2017-08-19T03:06:18.141Z,16.56
2017-08-19T03:07:24.223Z,16.60
2017-08-19T03:08:30.272Z,16.59
2017-08-19T03:09:36.351Z,16.48
2017-08-19T03:10:42.474Z,16.42
2017-08-19T03:11:48.650Z,16.38
2017-08-19T03:12:54.685Z,16.40
2017-08-19T03:14:00.697Z,16.37
2017-08-19T03:15:06.753Z,16.38
2017-08-19T03:16:12.854Z,16.44
2017-08-19T03:17:18.876Z,16.42
2017-08-19T03:18:24.909Z,16.34
2017-08-19T03:19:30.921Z,16.35
2017-08-19T03:20:36.922Z,16.33
2017-08-19T03:21:43.003Z,16.34
2017-08-19T03:22:49.033Z,16.35
2017-08-19T03:23:55.072Z,16.38
2017-08-19T03:25:01.106Z,16.32
2017-08-19T03:26:07.117Z,16.29
2017-08-19T03:27:13.233Z,16.34
2017-08-19T03:28:19.262Z,16.30
2017-08-19T03:29:25.299Z,16.34
2017-08-19T03:30:31.647Z,16.26
2017-08-19T03:31:37.678Z,16.26
2017-08-19T03:32:43.786Z,16.30
2017-08-19T03:33:49.882Z,16.24
2017-08-19T03:34:55.934Z,16.28
2017-08-19T03:36:01.959Z,16.28
2017-08-19T03:37:07.970Z,16.30
2017-08-19T03:38:14.031Z,16.25
2017-08-19T03:39:20.050Z,16.30
2017-08-19T03:40:26.063Z,16.28
2017-08-19T03:41:32.074Z,16.33
2017-08-19T03:42:38.074Z,16.32
2017-08-19T03:43:44.107Z,16.32
2017-08-19T03:44:50.131Z,16.26
2017-08-19T03:45:56.155Z,16.22
2017-08-19T03:47:02.177Z,16.16
2017-08-19T03:48:08.205Z,16.10
2017-08-19T03:49:14.256Z,16.12
2017-08-19T03:50:20.342Z,16.12
2017-08-19T03:51:26.371Z,16.14
2017-08-19T03:52:32.401Z,16.20
2017-08-19T03:53:38.449Z,16.15
2017-08-19T03:54:44.523Z,16.17
2017-08-19T03:55:50.567Z,16.13
2017-08-19T03:56:56.633Z,16.15
2017-08-19T03:58:02.666Z,16.16
2017-08-19T03:59:08.740Z,16.20
2017-08-19T04:00:14.128Z,16.24
2017-08-19T04:01:19.994Z,16.22
2017-08-19T04:02:25.661Z,16.17
2017-08-19T04:03:31.682Z,16.16
2017-08-19T04:04:37.744Z,16.10
2017-08-19T04:05:43.438Z,16.05
2017-08-19T04:06:49.498Z,16.05
2017-08-19T04:07:55.572Z,16.06
2017-08-19T04:09:01.577Z,16.09
2017-08-19T04:10:07.415Z,16.08
2017-08-19T04:11:13.517Z,16.01
2017-08-19T04:12:22.892Z,16.00
2017-08-19T04:13:28.946Z,16.01
2017-08-19T04:14:34.994Z,16.01
2017-08-19T04:15:41.046Z,16.01
2017-08-19T04:16:47.100Z,16.03
2017-08-19T04:17:53.145Z,16.03
2017-08-19T04:18:59.201Z,16.02
2017-08-19T04:20:05.314Z,15.94
2017-08-19T04:21:11.382Z,15.96
2017-08-19T04:22:17.431Z,15.94
2017-08-19T04:23:23.487Z,15.95
2017-08-19T04:24:29.536Z,15.98
2017-08-19T04:25:35.571Z,15.90
2017-08-19T04:26:41.739Z,15.86
2017-08-19T04:27:48.522Z,15.88
2017-08-19T04:28:54.584Z,15.92
2017-08-19T04:30:00.665Z,15.87
2017-08-19T04:31:06.732Z,15.90
2017-08-19T04:32:15.448Z,15.89
2017-08-19T04:33:25.699Z,15.91
2017-08-19T04:34:31.413Z,15.78
2017-08-19T04:35:37.484Z,15.72
2017-08-19T04:36:43.507Z,15.72
2017-08-19T04:37:49.548Z,15.74
2017-08-19T04:38:55.638Z,15.72
2017-08-19T04:40:01.660Z,15.76
2017-08-19T04:41:07.665Z,15.76
2017-08-19T04:42:13.714Z,15.75
2017-08-19T04:43:19.569Z,15.81
2017-08-19T04:44:25.675Z,15.84
2017-08-19T04:45:31.713Z,15.84
2017-08-19T04:46:37.552Z,15.90
2017-08-19T04:47:43.633Z,15.90
2017-08-19T04:48:49.718Z,15.89
2017-08-19T04:49:55.820Z,15.83
2017-08-19T04:51:01.832Z,15.83
2017-08-19T04:52:07.862Z,15.77
2017-08-19T04:53:20.506Z,15.90
2017-08-19T04:54:26.528Z,15.79
2017-08-19T04:55:32.629Z,15.81
2017-08-19T04:56:38.641Z,15.77
2017-08-19T04:57:44.691Z,15.78
2017-08-19T04:58:51.131Z,15.84
2017-08-19T04:59:57.165Z,15.85
2017-08-19T05:01:03.334Z,15.77
2017-08-19T05:02:09.373Z,15.73
2017-08-19T05:03:15.423Z,15.74
2017-08-19T05:04:21.465Z,15.69
2017-08-19T05:05:27.562Z,15.70
2017-08-19T05:06:33.649Z,15.81
2017-08-19T05:07:39.701Z,15.83
2017-08-19T05:08:45.766Z,15.79
2017-08-19T05:09:51.807Z,15.73
2017-08-19T05:10:57.858Z,15.68
2017-08-19T05:12:04.429Z,15.57
2017-08-19T05:13:10.453Z,15.55
2017-08-19T05:14:16.817Z,15.53
2017-08-19T05:15:22.822Z,15.50
2017-08-19T05:16:28.886Z,15.47
2017-08-19T05:17:34.972Z,15.56
2017-08-19T05:18:41.018Z,15.61
2017-08-19T05:19:47.078Z,15.54
2017-08-19T05:20:53.168Z,15.57
2017-08-19T05:21:59.231Z,15.58
2017-08-19T05:23:05.382Z,15.58
2017-08-19T05:24:11.415Z,15.62
2017-08-19T05:25:17.500Z,15.74
2017-08-19T05:26:23.565Z,15.84
2017-08-19T05:27:29.602Z,15.90
2017-08-19T05:28:35.666Z,15.90
2017-08-19T05:29:41.713Z,15.84
2017-08-19T05:30:47.738Z,15.83
2017-08-19T05:31:53.773Z,15.91
2017-08-19T05:32:59.860Z,15.88
2017-08-19T05:34:09.485Z,15.97
2017-08-19T05:35:18.840Z,16.03
2017-08-19T05:36:25.077Z,16.09
2017-08-19T05:37:31.130Z,16.17
2017-08-19T05:38:37.174Z,16.16
2017-08-19T05:39:49.126Z,16.10
2017-08-19T05:40:58.407Z,16.08
2017-08-19T05:42:06.287Z,16.12
2017-08-19T05:43:14.897Z,16.13
2017-08-19T05:44:22.950Z,16.10
2017-08-19T05:45:29.139Z,16.11
2017-08-19T05:46:36.929Z,16.01
2017-08-19T05:47:43.414Z,16.09
2017-08-19T05:48:51.089Z,16.12
2017-08-19T05:49:58.304Z,16.08
2017-08-19T05:51:05.790Z,16.12
2017-08-19T05:52:13.249Z,16.10
2017-08-19T05:53:20.110Z,16.06
2017-08-19T05:54:28.002Z,16.05
2017-08-19T05:55:35.978Z,16.00
2017-08-19T05:56:43.162Z,16.02
2017-08-19T05:57:51.672Z,16.12
2017-08-19T05:58:58.791Z,16.21
2017-08-19T06:00:07.540Z,16.12
2017-08-19T06:01:14.887Z,16.12
2017-08-19T06:02:23.578Z,16.11
2017-08-19T06:03:31.948Z,15.97
2017-08-19T06:04:40.564Z,16.02
2017-08-19T06:05:48.368Z,16.03
2017-08-19T06:06:56.906Z,16.08
2017-08-19T06:08:04.638Z,16.03
2017-08-19T06:09:12.220Z,15.97
2017-08-19T06:10:20.859Z,15.85
2017-08-19T06:11:29.027Z,15.97
2017-08-19T06:12:36.487Z,16.01
2017-08-19T06:13:44.558Z,16.07
2017-08-19T06:14:50.925Z,15.96
2017-08-19T06:16:02.584Z,15.69
2017-08-19T06:17:11.528Z,15.62
2017-08-19T06:18:19.522Z,15.72
2017-08-19T06:19:27.052Z,15.74
2017-08-19T06:20:36.071Z,15.80
2017-08-19T06:21:42.279Z,15.69
2017-08-19T06:22:50.518Z,15.69
2017-08-19T06:23:57.329Z,15.77
2017-08-19T06:25:04.401Z,15.84
2017-08-19T06:26:12.648Z,15.75
2017-08-19T06:27:19.400Z,15.62
2017-08-19T06:28:27.538Z,15.68
2017-08-19T06:29:36.065Z,15.81
2017-08-19T06:30:44.543Z,15.70
2017-08-19T06:31:52.051Z,15.69
2017-08-19T06:32:58.902Z,15.78
2017-08-19T06:34:07.526Z,15.78
2017-08-19T06:35:15.517Z,15.87
2017-08-19T06:36:25.336Z,15.93
2017-08-19T06:37:34.041Z,16.04
2017-08-19T06:38:41.810Z,16.06
2017-08-19T06:39:48.716Z,16.07
2017-08-19T06:40:57.100Z,16.07
2017-08-19T06:42:05.798Z,15.98
2017-08-19T06:43:13.928Z,15.94
2017-08-19T06:44:20.549Z,15.98
2017-08-19T06:45:26.598Z,15.90
2017-08-19T06:46:34.156Z,15.87
2017-08-19T06:47:42.224Z,15.88
2017-08-19T06:48:50.398Z,15.81
2017-08-19T06:49:59.075Z,15.84
2017-08-19T06:51:06.504Z,15.87
2017-08-19T06:52:14.054Z,15.90
2017-08-19T06:53:21.642Z,15.86
2017-08-19T06:54:31.130Z,15.85
2017-08-19T06:55:41.110Z,15.91
2017-08-19T06:56:48.774Z,15.78
2017-08-19T06:58:03.765Z,15.83
2017-08-19T06:59:12.105Z,15.89
2017-08-19T07:00:19.785Z,15.96
2017-08-19T07:01:27.429Z,16.02
2017-08-19T07:02:34.931Z,16.10
2017-08-19T07:03:41.634Z,16.08
2017-08-19T07:04:48.376Z,16.01
2017-08-19T07:05:58.192Z,16.09
2017-08-19T07:07:05.748Z,16.17
2017-08-19T07:08:14.133Z,16.20
2017-08-19T07:09:21.523Z,16.22
2017-08-19T07:10:28.109Z,16.33
2017-08-19T07:11:34.926Z,16.30
2017-08-19T07:12:43.939Z,16.37
2017-08-19T07:13:51.090Z,16.46
2017-08-19T07:14:59.221Z,16.53
2017-08-19T07:16:06.922Z,16.64
2017-08-19T07:17:14.316Z,16.67
2017-08-19T07:18:20.746Z,16.75
2017-08-19T07:19:31.381Z,16.70
2017-08-19T07:20:41.098Z,16.80
2017-08-19T07:21:50.355Z,16.75
2017-08-19T07:22:58.829Z,16.77
2017-08-19T07:24:06.815Z,16.88
2017-08-19T07:25:14.305Z,16.87
2017-08-19T07:26:21.535Z,17.05
2017-08-19T07:27:28.571Z,17.06
2017-08-19T07:28:36.107Z,17.06
2017-08-19T07:29:43.581Z,17.16
2017-08-19T07:30:50.347Z,17.22
2017-08-19T07:31:57.415Z,17.31
2017-08-19T07:33:04.455Z,16.92
2017-08-19T07:34:11.378Z,16.91
2017-08-19T07:35:19.221Z,17.01
2017-08-19T07:36:25.989Z,16.94
2017-08-19T07:37:32.972Z,16.97
2017-08-19T07:38:39.401Z,16.99
2017-08-19T07:39:47.088Z,16.58
2017-08-19T07:40:53.959Z,16.49
2017-08-19T07:42:01.861Z,16.58
2017-08-19T07:43:08.552Z,16.63
2017-08-19T07:44:15.471Z,16.73
2017-08-19T07:45:22.175Z,16.51
2017-08-19T07:46:28.927Z,16.60
2017-08-19T07:47:35.660Z,16.56
2017-08-19T07:48:42.561Z,16.53
2017-08-19T07:49:49.698Z,16.51
2017-08-19T07:50:57.127Z,16.27
2017-08-19T07:52:04.932Z,16.38
2017-08-19T07:53:13.085Z,16.40
2017-08-19T07:54:22.015Z,16.58
2017-08-19T07:55:29.163Z,16.63
2017-08-19T07:56:37.039Z,16.86
2017-08-19T07:57:45.083Z,16.92
2017-08-19T07:58:51.662Z,17.06
2017-08-19T07:59:59.734Z,17.13
2017-08-19T08:01:06.885Z,17.17
2017-08-19T08:02:16.098Z,17.26
2017-08-19T08:03:23.914Z,17.33
2017-08-19T08:04:30.872Z,17.38
2017-08-19T08:05:37.310Z,17.24
2017-08-19T08:06:43.732Z,17.35
2017-08-19T08:07:50.247Z,17.36
2017-08-19T08:08:58.726Z,17.28
2017-08-19T08:10:06.257Z,17.24
2017-08-19T08:11:13.612Z,17.16
2017-08-19T08:12:21.644Z,17.11
2017-08-19T08:13:28.076Z,17.04
2017-08-19T08:14:36.011Z,17.07
2017-08-19T08:15:43.342Z,16.97
2017-08-19T08:16:50.206Z,17.01
2017-08-19T08:17:59.405Z,17.05
2017-08-19T08:19:07.278Z,17.18
2017-08-19T08:20:14.614Z,17.17
2017-08-19T08:21:28.475Z,17.18
2017-08-19T08:22:36.941Z,17.18
2017-08-19T08:23:44.137Z,17.08
2017-08-19T08:24:50.899Z,17.13
2017-08-19T08:25:58.872Z,17.05
2017-08-19T08:27:07.249Z,17.09
2017-08-19T08:28:14.345Z,17.02
2017-08-19T08:29:21.408Z,16.92
2017-08-19T08:30:28.386Z,17.00
2017-08-19T08:31:34.397Z,17.11
2017-08-19T08:32:40.450Z,17.10
2017-08-19T08:33:47.535Z,17.16
2017-08-19T08:34:56.710Z,17.00
2017-08-19T08:36:06.849Z,17.21
2017-08-19T08:37:13.680Z,17.37
2017-08-19T08:38:20.369Z,17.52
2017-08-19T08:39:27.802Z,17.44
2017-08-19T08:40:35.173Z,17.56
2017-08-19T08:41:43.178Z,17.77
2017-08-19T08:42:51.639Z,17.59
2017-08-19T08:44:00.209Z,17.57
2017-08-19T08:45:07.565Z,17.76
2017-08-19T08:46:16.206Z,17.93
2017-08-19T08:47:23.211Z,18.05
2017-08-19T08:48:29.855Z,18.17
2017-08-19T08:49:36.929Z,18.34
2017-08-19T08:50:44.734Z,18.44
2017-08-19T08:51:52.448Z,18.70
2017-08-19T08:53:01.554Z,18.81
2017-08-19T08:54:08.164Z,18.82
2017-08-19T08:55:14.904Z,18.91
2017-08-19T08:56:22.323Z,19.08
2017-08-19T08:57:30.466Z,18.99
2017-08-19T08:58:37.168Z,19.09
2017-08-19T08:59:44.990Z,18.70
2017-08-19T09:00:53.502Z,18.44
2017-08-19T09:02:01.568Z,18.62
2017-08-19T09:03:10.040Z,18.60
2017-08-19T09:04:18.437Z,18.75
2017-08-19T09:05:26.792Z,18.60
2017-08-19T09:06:34.258Z,18.67
2017-08-19T09:07:40.470Z,18.66
2017-08-19T09:08:46.973Z,18.64
2017-08-19T09:09:54.895Z,18.70
2017-08-19T09:11:01.573Z,18.63
2017-08-19T09:12:09.140Z,18.50
2017-08-19T09:13:16.634Z,18.64
2017-08-19T09:14:23.233Z,18.61
2017-08-19T09:15:30.488Z,18.59
2017-08-19T09:16:37.579Z,18.54
2017-08-19T09:17:45.321Z,18.69
2017-08-19T09:18:52.657Z,18.86
2017-08-19T09:20:00.882Z,18.98
2017-08-19T09:21:08.924Z,19.11
2017-08-19T09:22:16.722Z,19.12
2017-08-19T09:23:22.990Z,18.99
2017-08-19T09:24:33.332Z,19.13
2017-08-19T09:25:40.864Z,19.27
2017-08-19T09:26:48.181Z,19.49
2017-08-19T09:27:55.173Z,19.74
2017-08-19T09:29:02.105Z,19.66
2017-08-19T09:30:09.420Z,19.72
2017-08-19T09:31:19.308Z,19.71
2017-08-19T09:32:26.485Z,19.73
2017-08-19T09:33:35.228Z,19.72
2017-08-19T09:34:42.813Z,19.88
2017-08-19T09:35:51.886Z,20.07
2017-08-19T09:37:00.577Z,19.93
2017-08-19T09:38:06.915Z,19.92
2017-08-19T09:39:14.453Z,19.85
2017-08-19T09:40:21.983Z,19.50
2017-08-19T09:41:29.237Z,19.70
2017-08-19T09:42:36.471Z,19.84
2017-08-19T09:43:45.895Z,19.73
2017-08-19T09:44:54.074Z,19.52
2017-08-19T09:46:02.908Z,19.68
2017-08-19T09:47:09.722Z,19.75
2017-08-19T09:48:17.026Z,19.72
2017-08-19T09:49:26.500Z,19.68
2017-08-19T09:50:33.981Z,19.80
2017-08-19T09:51:41.086Z,19.95
2017-08-19T09:52:49.228Z,19.88
2017-08-19T09:53:56.068Z,19.84
2017-08-19T09:55:04.787Z,19.88
2017-08-19T09:56:13.194Z,19.99
2017-08-19T09:57:20.423Z,20.17
2017-08-19T09:58:28.861Z,20.28
2017-08-19T09:59:35.533Z,20.26
2017-08-19T10:00:42.482Z,20.20
2017-08-19T10:01:48.845Z,19.94
2017-08-19T10:02:55.237Z,19.98
2017-08-19T10:04:02.743Z,20.05
2017-08-19T10:05:09.066Z,20.30
2017-08-19T10:06:19.772Z,20.48
2017-08-19T10:07:25.787Z,20.41
2017-08-19T10:08:42.859Z,20.29
2017-08-19T10:09:48.447Z,19.97
2017-08-19T10:10:55.659Z,20.07
2017-08-19T10:12:01.716Z,19.86
2017-08-19T10:13:07.792Z,20.19
2017-08-19T10:14:13.839Z,20.44
2017-08-19T10:15:19.885Z,20.51
2017-08-19T10:16:25.777Z,20.54
2017-08-19T10:17:31.806Z,20.65
2017-08-19T10:18:37.841Z,20.74
2017-08-19T10:19:43.849Z,20.90
2017-08-19T10:20:49.884Z,21.12
2017-08-19T10:21:55.941Z,21.10
2017-08-19T10:23:01.956Z,21.05
2017-08-19T10:24:07.971Z,21.00
2017-08-19T10:25:13.988Z,20.96
2017-08-19T10:26:20.095Z,20.98
2017-08-19T10:27:26.121Z,21.04
2017-08-19T10:28:32.156Z,20.97
2017-08-19T10:29:38.219Z,20.92
2017-08-19T10:30:44.241Z,20.98
2017-08-19T10:31:50.290Z,20.94
2017-08-19T10:32:56.394Z,20.71
2017-08-19T10:34:02.439Z,21.00
2017-08-19T10:35:08.465Z,21.19
2017-08-19T10:36:14.494Z,20.60
2017-08-19T10:37:20.522Z,20.84
2017-08-19T10:38:26.591Z,20.96
2017-08-19T10:39:32.618Z,21.08
2017-08-19T10:40:38.645Z,21.18
2017-08-19T10:41:44.481Z,21.33
2017-08-19T10:42:50.507Z,21.52
2017-08-19T10:43:56.612Z,21.13
2017-08-19T10:45:02.650Z,21.28
2017-08-19T10:46:08.691Z,21.27
2017-08-19T10:47:16.572Z,21.37
2017-08-19T10:48:28.253Z,21.41
2017-08-19T10:49:34.329Z,21.38
2017-08-19T10:50:56.422Z,21.55
2017-08-19T10:52:03.380Z,21.50
2017-08-19T10:56:33.984Z,21.26
2017-08-19T10:57:48.300Z,21.04
2017-08-19T10:58:59.719Z,20.94
2017-08-19T11:00:06.615Z,20.97
2017-08-19T11:01:13.307Z,21.05
2017-08-19T11:02:19.359Z,20.80
2017-08-19T11:03:25.397Z,20.90
2017-08-19T11:04:31.424Z,21.01
2017-08-19T11:05:37.498Z,20.80
2017-08-19T11:06:43.537Z,20.99
2017-08-19T11:07:52.971Z,21.13
2017-08-19T11:09:01.597Z,21.37
2017-08-19T11:10:07.698Z,21.31
2017-08-19T11:11:13.824Z,21.60
2017-08-19T11:12:19.856Z,21.69
2017-08-19T11:13:25.933Z,21.88
2017-08-19T11:14:32.025Z,21.84
2017-08-19T11:15:38.070Z,21.86
2017-08-19T11:16:44.174Z,21.70
2017-08-19T11:17:50.217Z,21.92
2017-08-19T11:18:57.139Z,22.19
2017-08-19T11:20:04.606Z,22.22
2017-08-19T11:21:11.866Z,22.19
2017-08-19T11:22:19.039Z,21.78
2017-08-19T11:23:25.520Z,21.88
2017-08-19T11:24:34.294Z,21.75
2017-08-19T11:25:41.695Z,21.62
2017-08-19T11:26:48.683Z,21.40
2017-08-19T11:27:54.839Z,21.57
2017-08-19T11:29:06.114Z,21.68
2017-08-19T11:30:12.126Z,21.60
2017-08-19T11:31:36.753Z,21.60
2017-08-19T11:32:42.921Z,21.85
2017-08-19T11:33:49.129Z,21.51
2017-08-19T11:34:56.406Z,21.14
2017-08-19T11:36:21.426Z,21.48
2017-08-19T11:37:31.715Z,21.77
2017-08-19T11:38:37.923Z,22.03
2017-08-19T11:41:28.445Z,21.94
2017-08-19T11:42:34.573Z,21.85
2017-08-19T11:43:40.625Z,21.97
2017-08-19T11:44:51.517Z,22.06
2017-08-19T11:45:57.487Z,21.98
2017-08-19T11:47:03.603Z,21.96
2017-08-19T11:48:09.702Z,22.00
2017-08-19T11:49:15.797Z,21.87
2017-08-19T11:50:24.409Z,21.82
2017-08-19T11:51:33.654Z,21.69
2017-08-19T11:52:39.667Z,21.80
2017-08-19T11:53:45.791Z,21.76
2017-08-19T11:54:51.872Z,21.83
2017-08-19T11:55:57.924Z,22.02
2017-08-19T11:57:04.055Z,21.93
2017-08-19T11:58:10.093Z,21.80
2017-08-19T11:59:16.169Z,21.84
2017-08-19T12:00:22.192Z,21.92
2017-08-19T12:01:28.039Z,21.98
2017-08-19T12:02:33.865Z,22.05
2017-08-19T12:03:39.952Z,21.97
2017-08-19T12:04:46.029Z,22.06
2017-08-19T12:05:51.890Z,22.18
2017-08-19T12:06:58.723Z,22.31
2017-08-19T12:08:06.135Z,22.18
2017-08-19T12:09:13.726Z,22.24
2017-08-19T12:10:21.338Z,22.27
2017-08-19T12:11:29.580Z,22.45
2017-08-19T12:12:36.900Z,22.58
2017-08-19T12:13:43.914Z,22.39
2017-08-19T12:14:51.583Z,22.48
2017-08-19T12:15:59.101Z,22.63
2017-08-19T12:17:06.503Z,22.73
2017-08-19T12:18:13.592Z,22.67
2017-08-19T12:19:20.763Z,22.50
2017-08-19T12:20:27.725Z,22.71
2017-08-19T12:21:35.076Z,22.58
2017-08-19T12:22:42.442Z,22.39
2017-08-19T12:23:49.657Z,22.44
2017-08-19T12:24:57.216Z,22.25
2017-08-19T12:26:03.676Z,22.32
2017-08-19T12:27:10.664Z,22.40
2017-08-19T12:28:18.640Z,22.56
2017-08-19T12:29:27.318Z,21.90
2017-08-19T12:30:36.840Z,21.99
2017-08-19T12:31:48.966Z,22.05
2017-08-19T12:32:58.179Z,22.10
2017-08-19T12:34:05.413Z,22.03
2017-08-19T12:35:13.670Z,22.28
2017-08-19T12:36:21.713Z,22.44
2017-08-19T12:37:29.222Z,22.55
2017-08-19T12:38:38.243Z,22.58
2017-08-19T12:39:57.533Z,22.80
2017-08-19T12:41:11.287Z,22.95
2017-08-19T12:42:20.590Z,23.02
2017-08-19T12:43:28.740Z,22.89
2017-08-19T12:44:37.742Z,22.80
2017-08-19T12:45:45.430Z,22.30
2017-08-19T12:46:57.735Z,22.20
2017-08-19T12:49:33.391Z,22.16
2017-08-19T12:50:41.497Z,22.42
2017-08-19T12:51:49.438Z,22.38
2017-08-19T12:52:57.313Z,22.59
2017-08-19T12:54:06.674Z,22.49
2017-08-19T12:55:15.259Z,22.43
2017-08-19T12:56:23.818Z,22.28
2017-08-19T12:57:32.933Z,22.40
2017-08-19T12:58:42.349Z,22.24
2017-08-19T12:59:50.429Z,22.19
2017-08-19T13:00:58.601Z,22.12
2017-08-19T13:02:08.123Z,22.21
2017-08-19T13:03:16.279Z,22.17
2017-08-19T13:04:24.340Z,21.80
2017-08-19T13:05:33.155Z,21.59
2017-08-19T13:06:43.539Z,21.81
2017-08-19T13:07:51.835Z,21.82
2017-08-19T13:08:59.630Z,21.87
2017-08-19T13:10:08.604Z,21.95
2017-08-19T13:11:17.346Z,22.01
2017-08-19T13:12:26.295Z,22.03
2017-08-19T18:38:00.740Z,19.16
2017-08-19T18:39:11.217Z,19.05
2017-08-19T18:40:20.040Z,19.04
2017-08-19T18:41:29.092Z,19.10
2017-08-19T18:42:35.974Z,19.09
2017-08-19T18:43:41.894Z,19.13
2017-08-19T18:44:47.981Z,19.06
2017-08-19T18:45:54.011Z,19.00
2017-08-19T18:47:00.062Z,19.05
2017-08-19T18:48:06.094Z,19.09
2017-08-19T18:53:53.050Z,18.82
2017-08-19T18:54:59.265Z,18.80
2017-08-19T18:56:05.479Z,18.84
2017-08-19T18:57:11.801Z,18.69
2017-08-19T18:58:18.301Z,18.57
2017-08-19T18:59:24.795Z,18.60
2017-08-19T19:00:30.883Z,18.60
2017-08-19T19:01:37.012Z,18.56
2017-08-19T19:02:43.470Z,18.59
2017-08-19T19:03:49.576Z,18.53
2017-08-19T19:04:55.748Z,18.48
2017-08-19T19:06:01.782Z,18.41
2017-08-19T19:07:07.925Z,18.28
2017-08-19T19:08:14.003Z,18.28
2017-08-19T19:09:20.160Z,18.24
2017-08-19T19:10:26.275Z,18.26
2017-08-19T19:11:33.730Z,18.18
2017-08-19T19:12:39.860Z,18.09
2017-08-19T19:13:46.002Z,18.12
2017-08-19T19:14:51.991Z,18.12
2017-08-19T19:15:58.145Z,18.16
2017-08-19T19:17:04.240Z,18.11
2017-08-19T19:18:10.190Z,18.02
2017-08-19T19:19:16.363Z,18.06
2017-08-19T19:20:22.510Z,18.05
2017-08-19T19:21:28.742Z,18.09
2017-08-19T19:22:34.848Z,18.07
2017-08-19T19:23:41.106Z,18.01
2017-08-19T19:24:47.255Z,17.93
2017-08-19T19:25:53.678Z,17.86
2017-08-19T19:27:01.093Z,17.83
2017-08-19T19:28:07.373Z,17.81
2017-08-19T19:29:14.007Z,17.76
2017-08-19T19:30:20.162Z,17.58
2017-08-19T19:31:26.233Z,17.47
2017-08-19T19:32:33.227Z,17.38
2017-08-19T19:33:39.987Z,17.35
2017-08-19T19:34:46.837Z,17.38
2017-08-19T19:35:53.881Z,17.34
2017-08-19T19:37:00.203Z,17.36
2017-08-19T19:38:06.431Z,17.38
2017-08-19T19:39:12.579Z,17.41
2017-08-19T19:40:18.935Z,17.36
2017-08-19T19:41:25.082Z,17.32
2017-08-19T19:42:33.522Z,17.24
2017-08-19T19:43:40.664Z,17.25
2017-08-19T19:44:46.907Z,17.22
2017-08-19T19:45:54.297Z,17.22
2017-08-19T19:47:00.514Z,17.19
2017-08-19T19:48:07.533Z,17.15
2017-08-19T19:49:14.689Z,17.19
2017-08-19T19:50:20.753Z,17.14
2017-08-19T19:51:27.066Z,17.18
2017-08-19T19:52:34.114Z,17.17
2017-08-19T19:53:40.283Z,17.15
2017-08-19T19:54:46.547Z,17.15
2017-08-19T19:55:52.639Z,17.14
2017-08-19T19:56:58.754Z,17.12
2017-08-19T19:58:04.921Z,17.09
2017-08-19T20:00:20.345Z,17.17